sensor_id;sensor_type;location;lat;lon;timestamp;P1;durP1;ratioP1;P2;durP2;ratioP2
8046;SDS011;67150;42.516;23.358;2023-04-25T00:01:27;4.43;;;4.13;;
8046;SDS011;67150;42.516;23.358;2023-04-25T00:03:54;4.93;;;4.60;;
8046;SDS011;67150;42.516;23.358;2023-04-25T00:06:22;5.40;;;5.00;;
8046;SDS011;67150;42.516;23.358;2023-04-25T00:08:52;5.53;;;5.13;;
8046;SDS011;67150;42.516;23.358;2023-04-25T00:11:21;5.77;;;5.37;;
8046;SDS011;67150;42.516;23.358;2023-04-25T00:13:49;5.73;;;5.33;;
8046;SDS011;67150;42.516;23.358;2023-04-25T00:16:18;6.33;;;5.83;;
8046;SDS011;67150;42.516;23.358;2023-04-25T00:18:46;6.10;;;5.70;;
8046;SDS011;67150;42.516;23.358;2023-04-25T00:21:17;5.73;;;5.33;;
8046;SDS011;67150;42.516;23.358;2023-04-25T00:23:45;5.80;;;5.40;;
8046;SDS011;67150;42.516;23.358;2023-04-25T00:26:16;5.57;;;5.17;;
8046;SDS011;67150;42.516;23.358;2023-04-25T00:28:43;5.30;;;4.90;;
8046;SDS011;67150;42.516;23.358;2023-04-25T00:31:10;4.93;;;4.53;;
8046;SDS011;67150;42.516;23.358;2023-04-25T00:33:40;4.93;;;4.53;;
8046;SDS011;67150;42.516;23.358;2023-04-25T00:36:07;4.30;;;4.00;;
8046;SDS011;67150;42.516;23.358;2023-04-25T00:38:36;3.60;;;3.40;;
8046;SDS011;67150;42.516;23.358;2023-04-25T00:41:04;3.93;;;3.63;;
8046;SDS011;67150;42.516;23.358;2023-04-25T00:43:32;3.17;;;2.97;;
8046;SDS011;67150;42.516;23.358;2023-04-25T00:46:00;3.13;;;2.93;;
8046;SDS011;67150;42.516;23.358;2023-04-25T00:48:28;3.33;;;3.13;;
8046;SDS011;67150;42.516;23.358;2023-04-25T00:50:58;2.97;;;2.77;;
8046;SDS011;67150;42.516;23.358;2023-04-25T00:53:27;3.10;;;2.90;;
8046;SDS011;67150;42.516;23.358;2023-04-25T00:55:54;3.90;;;2.77;;
8046;SDS011;67150;42.516;23.358;2023-04-25T00:58:23;3.40;;;3.20;;
8046;SDS011;67150;42.516;23.358;2023-04-25T01:00:51;3.37;;;3.17;;
8046;SDS011;67150;42.516;23.358;2023-04-25T01:03:19;4.30;;;3.00;;
8046;SDS011;67150;42.516;23.358;2023-04-25T01:05:48;3.60;;;3.40;;
8046;SDS011;67150;42.516;23.358;2023-04-25T01:08:17;3.83;;;3.60;;
8046;SDS011;67150;42.516;23.358;2023-04-25T01:10:45;4.60;;;4.30;;
8046;SDS011;67150;42.516;23.358;2023-04-25T01:13:12;4.50;;;4.20;;
8046;SDS011;67150;42.516;23.358;2023-04-25T01:15:40;4.73;;;4.30;;
8046;SDS011;67150;42.516;23.358;2023-04-25T01:18:08;5.40;;;4.90;;
8046;SDS011;67150;42.516;23.358;2023-04-25T01:20:36;5.00;;;4.60;;
8046;SDS011;67150;42.516;23.358;2023-04-25T01:23:07;5.13;;;4.73;;
8046;SDS011;67150;42.516;23.358;2023-04-25T01:25:35;4.73;;;4.43;;
8046;SDS011;67150;42.516;23.358;2023-04-25T01:28:04;5.00;;;4.60;;
8046;SDS011;67150;42.516;23.358;2023-04-25T01:30:33;4.70;;;4.40;;
8046;SDS011;67150;42.516;23.358;2023-04-25T01:33:01;4.83;;;4.43;;
8046;SDS011;67150;42.516;23.358;2023-04-25T01:35:31;4.90;;;4.60;;
8046;SDS011;67150;42.516;23.358;2023-04-25T01:37:59;4.80;;;4.40;;
8046;SDS011;67150;42.516;23.358;2023-04-25T01:40:29;4.60;;;4.23;;
8046;SDS011;67150;42.516;23.358;2023-04-25T01:42:57;4.60;;;4.30;;
8046;SDS011;67150;42.516;23.358;2023-04-25T01:45:24;5.20;;;3.83;;
8046;SDS011;67150;42.516;23.358;2023-04-25T01:47:52;6.03;;;3.40;;
8046;SDS011;67150;42.516;23.358;2023-04-25T01:50:19;3.90;;;3.60;;
8046;SDS011;67150;42.516;23.358;2023-04-25T01:52:47;4.67;;;3.80;;
8046;SDS011;67150;42.516;23.358;2023-04-25T01:55:15;3.60;;;3.30;;
8046;SDS011;67150;42.516;23.358;2023-04-25T01:57:43;3.50;;;3.30;;
8046;SDS011;67150;42.516;23.358;2023-04-25T02:00:12;4.50;;;3.43;;
8046;SDS011;67150;42.516;23.358;2023-04-25T02:02:40;4.30;;;3.90;;
8046;SDS011;67150;42.516;23.358;2023-04-25T02:05:07;10.00;;;4.40;;
8046;SDS011;67150;42.516;23.358;2023-04-25T02:07:35;4.77;;;4.23;;
8046;SDS011;67150;42.516;23.358;2023-04-25T02:10:03;4.67;;;4.30;;
8046;SDS011;67150;42.516;23.358;2023-04-25T02:12:46;5.20;;;4.80;;
8046;SDS011;67150;42.516;23.358;2023-04-25T02:15:16;5.10;;;4.70;;
8046;SDS011;67150;42.516;23.358;2023-04-25T02:17:49;5.60;;;5.20;;
8046;SDS011;67150;42.516;23.358;2023-04-25T02:20:31;5.23;;;4.40;;
8046;SDS011;67150;42.516;23.358;2023-04-25T02:22:59;5.90;;;4.80;;
8046;SDS011;67150;42.516;23.358;2023-04-25T02:25:26;5.67;;;5.17;;
8046;SDS011;67150;42.516;23.358;2023-04-25T02:27:55;5.63;;;5.03;;
8046;SDS011;67150;42.516;23.358;2023-04-25T02:30:22;6.03;;;5.17;;
8046;SDS011;67150;42.516;23.358;2023-04-25T02:32:49;5.63;;;5.13;;
8046;SDS011;67150;42.516;23.358;2023-04-25T02:35:17;5.73;;;5.20;;
8046;SDS011;67150;42.516;23.358;2023-04-25T02:37:45;6.17;;;5.30;;
8046;SDS011;67150;42.516;23.358;2023-04-25T02:40:14;5.37;;;4.87;;
8046;SDS011;67150;42.516;23.358;2023-04-25T02:42:41;8.07;;;5.03;;
8046;SDS011;67150;42.516;23.358;2023-04-25T02:45:12;5.47;;;4.80;;
8046;SDS011;67150;42.516;23.358;2023-04-25T02:47:39;5.20;;;4.67;;
8046;SDS011;67150;42.516;23.358;2023-04-25T02:50:07;5.30;;;4.90;;
8046;SDS011;67150;42.516;23.358;2023-04-25T02:52:34;5.13;;;4.63;;
8046;SDS011;67150;42.516;23.358;2023-04-25T02:55:02;4.83;;;4.50;;
8046;SDS011;67150;42.516;23.358;2023-04-25T02:57:29;5.33;;;4.93;;
8046;SDS011;67150;42.516;23.358;2023-04-25T02:59:57;5.83;;;4.70;;
8046;SDS011;67150;42.516;23.358;2023-04-25T03:02:25;4.87;;;4.47;;
8046;SDS011;67150;42.516;23.358;2023-04-25T03:04:53;5.13;;;4.73;;
8046;SDS011;67150;42.516;23.358;2023-04-25T03:07:20;4.77;;;4.37;;
8046;SDS011;67150;42.516;23.358;2023-04-25T03:09:47;4.60;;;4.20;;
8046;SDS011;67150;42.516;23.358;2023-04-25T03:12:15;4.67;;;4.20;;
8046;SDS011;67150;42.516;23.358;2023-04-25T03:14:42;4.50;;;4.10;;
8046;SDS011;67150;42.516;23.358;2023-04-25T03:17:09;4.73;;;4.33;;
8046;SDS011;67150;42.516;23.358;2023-04-25T03:19:38;4.40;;;4.00;;
8046;SDS011;67150;42.516;23.358;2023-04-25T03:22:05;4.20;;;3.90;;
8046;SDS011;67150;42.516;23.358;2023-04-25T03:24:33;4.37;;;3.97;;
8046;SDS011;67150;42.516;23.358;2023-04-25T03:27:00;4.23;;;3.90;;
8046;SDS011;67150;42.516;23.358;2023-04-25T03:29:27;3.93;;;3.63;;
8046;SDS011;67150;42.516;23.358;2023-04-25T03:31:55;3.77;;;3.47;;
8046;SDS011;67150;42.516;23.358;2023-04-25T03:34:25;4.00;;;3.70;;
8046;SDS011;67150;42.516;23.358;2023-04-25T03:36:54;3.70;;;3.50;;
8046;SDS011;67150;42.516;23.358;2023-04-25T03:39:21;3.50;;;3.30;;
8046;SDS011;67150;42.516;23.358;2023-04-25T03:41:48;3.73;;;3.43;;
8046;SDS011;67150;42.516;23.358;2023-04-25T03:44:16;3.97;;;3.67;;
8046;SDS011;67150;42.516;23.358;2023-04-25T03:46:43;3.70;;;3.40;;
8046;SDS011;67150;42.516;23.358;2023-04-25T03:49:10;3.90;;;3.57;;
8046;SDS011;67150;42.516;23.358;2023-04-25T03:51:37;3.67;;;3.47;;
8046;SDS011;67150;42.516;23.358;2023-04-25T03:54:06;3.40;;;3.10;;
8046;SDS011;67150;42.516;23.358;2023-04-25T03:56:33;3.50;;;3.30;;
8046;SDS011;67150;42.516;23.358;2023-04-25T03:59:01;3.40;;;3.10;;
8046;SDS011;67150;42.516;23.358;2023-04-25T04:01:28;3.60;;;3.30;;
8046;SDS011;67150;42.516;23.358;2023-04-25T04:03:55;3.80;;;3.50;;
8046;SDS011;67150;42.516;23.358;2023-04-25T04:06:22;3.60;;;3.30;;
8046;SDS011;67150;42.516;23.358;2023-04-25T04:08:50;3.77;;;3.47;;
8046;SDS011;67150;42.516;23.358;2023-04-25T04:11:19;3.50;;;3.20;;
8046;SDS011;67150;42.516;23.358;2023-04-25T04:13:46;3.93;;;3.63;;
8046;SDS011;67150;42.516;23.358;2023-04-25T04:16:16;3.60;;;3.40;;
8046;SDS011;67150;42.516;23.358;2023-04-25T04:18:44;3.77;;;3.47;;
8046;SDS011;67150;42.516;23.358;2023-04-25T04:21:12;3.40;;;3.20;;
8046;SDS011;67150;42.516;23.358;2023-04-25T04:23:40;3.40;;;3.20;;
8046;SDS011;67150;42.516;23.358;2023-04-25T04:26:07;3.70;;;3.40;;
8046;SDS011;67150;42.516;23.358;2023-04-25T04:28:36;4.30;;;3.40;;
8046;SDS011;67150;42.516;23.358;2023-04-25T04:31:04;3.40;;;3.20;;
8046;SDS011;67150;42.516;23.358;2023-04-25T04:33:31;4.03;;;3.67;;
8046;SDS011;67150;42.516;23.358;2023-04-25T04:35:58;3.97;;;3.20;;
8046;SDS011;67150;42.516;23.358;2023-04-25T04:38:29;3.97;;;3.67;;
8046;SDS011;67150;42.516;23.358;2023-04-25T04:40:57;3.63;;;3.43;;
8046;SDS011;67150;42.516;23.358;2023-04-25T04:43:24;5.17;;;3.70;;
8046;SDS011;67150;42.516;23.358;2023-04-25T04:45:53;3.77;;;3.47;;
8046;SDS011;67150;42.516;23.358;2023-04-25T04:48:21;3.50;;;3.27;;
8046;SDS011;67150;42.516;23.358;2023-04-25T04:50:49;3.70;;;3.50;;
8046;SDS011;67150;42.516;23.358;2023-04-25T04:53:17;3.63;;;3.37;;
8046;SDS011;67150;42.516;23.358;2023-04-25T04:55:44;4.00;;;3.60;;
8046;SDS011;67150;42.516;23.358;2023-04-25T04:58:11;3.50;;;3.23;;
8046;SDS011;67150;42.516;23.358;2023-04-25T05:00:39;3.30;;;3.10;;
8046;SDS011;67150;42.516;23.358;2023-04-25T05:03:07;3.40;;;3.20;;
8046;SDS011;67150;42.516;23.358;2023-04-25T05:05:35;3.43;;;3.23;;
8046;SDS011;67150;42.516;23.358;2023-04-25T05:08:05;3.47;;;3.20;;
8046;SDS011;67150;42.516;23.358;2023-04-25T05:10:32;3.50;;;3.17;;
8046;SDS011;67150;42.516;23.358;2023-04-25T05:13:00;3.30;;;3.10;;
8046;SDS011;67150;42.516;23.358;2023-04-25T05:15:27;3.23;;;3.03;;
8046;SDS011;67150;42.516;23.358;2023-04-25T05:17:55;3.30;;;3.10;;
8046;SDS011;67150;42.516;23.358;2023-04-25T05:20:23;3.30;;;3.10;;
8046;SDS011;67150;42.516;23.358;2023-04-25T05:22:51;3.47;;;3.17;;
8046;SDS011;67150;42.516;23.358;2023-04-25T05:25:18;3.70;;;3.40;;
8046;SDS011;67150;42.516;23.358;2023-04-25T05:27:45;3.47;;;3.27;;
8046;SDS011;67150;42.516;23.358;2023-04-25T05:30:13;3.30;;;3.10;;
8046;SDS011;67150;42.516;23.358;2023-04-25T05:32:40;3.60;;;3.30;;
8046;SDS011;67150;42.516;23.358;2023-04-25T05:35:07;3.47;;;3.27;;
8046;SDS011;67150;42.516;23.358;2023-04-25T05:37:36;3.70;;;3.40;;
8046;SDS011;67150;42.516;23.358;2023-04-25T05:40:04;3.40;;;3.20;;
8046;SDS011;67150;42.516;23.358;2023-04-25T05:42:33;3.50;;;3.30;;
8046;SDS011;67150;42.516;23.358;2023-04-25T05:45:00;12.10;;;3.70;;
8046;SDS011;67150;42.516;23.358;2023-04-25T05:47:27;11.30;;;3.67;;
8046;SDS011;67150;42.516;23.358;2023-04-25T05:49:54;11.97;;;3.97;;
8046;SDS011;67150;42.516;23.358;2023-04-25T05:52:21;19.47;;;3.40;;
8046;SDS011;67150;42.516;23.358;2023-04-25T05:54:50;3.83;;;3.33;;
8046;SDS011;67150;42.516;23.358;2023-04-25T05:57:19;3.93;;;3.60;;
8046;SDS011;67150;42.516;23.358;2023-04-25T05:59:47;3.90;;;3.60;;
8046;SDS011;67150;42.516;23.358;2023-04-25T06:02:18;4.23;;;3.57;;
8046;SDS011;67150;42.516;23.358;2023-04-25T06:04:46;3.80;;;3.43;;
8046;SDS011;67150;42.516;23.358;2023-04-25T06:07:16;5.13;;;3.63;;
8046;SDS011;67150;42.516;23.358;2023-04-25T06:09:43;4.07;;;3.40;;
8046;SDS011;67150;42.516;23.358;2023-04-25T06:12:12;3.80;;;3.50;;
8046;SDS011;67150;42.516;23.358;2023-04-25T06:14:40;5.70;;;3.63;;
8046;SDS011;67150;42.516;23.358;2023-04-25T06:17:07;4.10;;;3.80;;
8046;SDS011;67150;42.516;23.358;2023-04-25T06:19:35;6.73;;;3.37;;
8046;SDS011;67150;42.516;23.358;2023-04-25T06:22:02;5.17;;;3.47;;
8046;SDS011;67150;42.516;23.358;2023-04-25T06:24:30;7.50;;;3.73;;
8046;SDS011;67150;42.516;23.358;2023-04-25T06:26:57;5.63;;;3.70;;
8046;SDS011;67150;42.516;23.358;2023-04-25T06:29:26;4.40;;;3.40;;
8046;SDS011;67150;42.516;23.358;2023-04-25T06:31:53;4.57;;;3.57;;
8046;SDS011;67150;42.516;23.358;2023-04-25T06:34:21;6.67;;;3.57;;
8046;SDS011;67150;42.516;23.358;2023-04-25T06:36:48;3.70;;;3.40;;
8046;SDS011;67150;42.516;23.358;2023-04-25T06:39:18;6.20;;;3.80;;
8046;SDS011;67150;42.516;23.358;2023-04-25T06:41:48;3.90;;;3.60;;
8046;SDS011;67150;42.516;23.358;2023-04-25T06:44:20;4.50;;;3.80;;
8046;SDS011;67150;42.516;23.358;2023-04-25T06:47:07;4.07;;;3.70;;
8046;SDS011;67150;42.516;23.358;2023-04-25T06:49:34;3.93;;;3.53;;
8046;SDS011;67150;42.516;23.358;2023-04-25T06:52:01;4.17;;;3.77;;
8046;SDS011;67150;42.516;23.358;2023-04-25T06:54:29;3.97;;;3.67;;
8046;SDS011;67150;42.516;23.358;2023-04-25T06:56:56;4.07;;;3.63;;
8046;SDS011;67150;42.516;23.358;2023-04-25T06:59:24;3.90;;;3.60;;
8046;SDS011;67150;42.516;23.358;2023-04-25T07:01:51;3.70;;;3.40;;
8046;SDS011;67150;42.516;23.358;2023-04-25T07:04:20;3.60;;;3.40;;
8046;SDS011;67150;42.516;23.358;2023-04-25T07:06:48;5.50;;;3.47;;
8046;SDS011;67150;42.516;23.358;2023-04-25T07:09:15;3.83;;;3.43;;
8046;SDS011;67150;42.516;23.358;2023-04-25T07:11:43;4.00;;;3.40;;
8046;SDS011;67150;42.516;23.358;2023-04-25T07:14:10;3.30;;;3.03;;
8046;SDS011;67150;42.516;23.358;2023-04-25T07:16:37;3.60;;;3.30;;
8046;SDS011;67150;42.516;23.358;2023-04-25T07:19:05;3.23;;;2.93;;
8046;SDS011;67150;42.516;23.358;2023-04-25T07:21:33;5.50;;;3.50;;
8046;SDS011;67150;42.516;23.358;2023-04-25T07:24:01;3.53;;;3.20;;
8046;SDS011;67150;42.516;23.358;2023-04-25T07:26:29;3.50;;;3.20;;
8046;SDS011;67150;42.516;23.358;2023-04-25T07:28:56;3.80;;;3.50;;
8046;SDS011;67150;42.516;23.358;2023-04-25T07:31:23;5.30;;;3.60;;
8046;SDS011;67150;42.516;23.358;2023-04-25T07:33:51;4.03;;;3.70;;
8046;SDS011;67150;42.516;23.358;2023-04-25T07:36:18;4.37;;;3.30;;
8046;SDS011;67150;42.516;23.358;2023-04-25T07:38:48;3.63;;;3.37;;
8046;SDS011;67150;42.516;23.358;2023-04-25T07:41:15;3.90;;;3.37;;
8046;SDS011;67150;42.516;23.358;2023-04-25T07:43:42;3.90;;;3.60;;
8046;SDS011;67150;42.516;23.358;2023-04-25T07:46:10;3.63;;;3.43;;
8046;SDS011;67150;42.516;23.358;2023-04-25T07:48:37;3.60;;;3.40;;
8046;SDS011;67150;42.516;23.358;2023-04-25T07:51:04;3.90;;;3.60;;
8046;SDS011;67150;42.516;23.358;2023-04-25T07:53:38;3.60;;;3.37;;
8046;SDS011;67150;42.516;23.358;2023-04-25T07:56:22;3.57;;;3.37;;
8046;SDS011;67150;42.516;23.358;2023-04-25T07:58:49;3.67;;;3.47;;
8046;SDS011;67150;42.516;23.358;2023-04-25T08:01:21;4.13;;;3.73;;
8046;SDS011;67150;42.516;23.358;2023-04-25T08:03:52;4.03;;;3.73;;
8046;SDS011;67150;42.516;23.358;2023-04-25T08:06:20;4.30;;;3.90;;
8046;SDS011;67150;42.516;23.358;2023-04-25T08:08:51;4.10;;;3.80;;
8046;SDS011;67150;42.516;23.358;2023-04-25T08:12:30;4.33;;;4.00;;
8046;SDS011;67150;42.516;23.358;2023-04-25T08:15:22;4.00;;;3.70;;
8046;SDS011;67150;42.516;23.358;2023-04-25T08:17:50;3.80;;;3.50;;
8046;SDS011;67150;42.516;23.358;2023-04-25T08:20:18;4.17;;;3.87;;
8046;SDS011;67150;42.516;23.358;2023-04-25T08:22:52;4.03;;;3.73;;
8046;SDS011;67150;42.516;23.358;2023-04-25T08:25:20;3.73;;;3.53;;
8046;SDS011;67150;42.516;23.358;2023-04-25T08:27:49;3.90;;;3.60;;
8046;SDS011;67150;42.516;23.358;2023-04-25T08:30:24;3.43;;;3.13;;
8046;SDS011;67150;42.516;23.358;2023-04-25T08:32:52;4.33;;;3.07;;
8046;SDS011;67150;42.516;23.358;2023-04-25T08:35:19;4.43;;;2.93;;
8046;SDS011;67150;42.516;23.358;2023-04-25T08:37:47;6.97;;;3.60;;
8046;SDS011;67150;42.516;23.358;2023-04-25T08:40:14;4.33;;;3.30;;
8046;SDS011;67150;42.516;23.358;2023-04-25T08:42:42;7.43;;;3.67;;
8046;SDS011;67150;42.516;23.358;2023-04-25T08:45:11;8.40;;;3.13;;
8046;SDS011;67150;42.516;23.358;2023-04-25T08:47:38;10.27;;;3.47;;
8046;SDS011;67150;42.516;23.358;2023-04-25T08:50:06;4.33;;;3.00;;
8046;SDS011;67150;42.516;23.358;2023-04-25T08:52:35;5.67;;;2.90;;
8046;SDS011;67150;42.516;23.358;2023-04-25T08:55:04;8.90;;;2.93;;
8046;SDS011;67150;42.516;23.358;2023-04-25T08:57:36;6.77;;;2.90;;
8046;SDS011;67150;42.516;23.358;2023-04-25T09:00:04;4.23;;;2.97;;
8046;SDS011;67150;42.516;23.358;2023-04-25T09:02:35;3.30;;;2.70;;
8046;SDS011;67150;42.516;23.358;2023-04-25T09:05:03;6.90;;;2.93;;
8046;SDS011;67150;42.516;23.358;2023-04-25T09:07:31;5.93;;;3.20;;
8046;SDS011;67150;42.516;23.358;2023-04-25T09:09:59;5.03;;;2.60;;
8046;SDS011;67150;42.516;23.358;2023-04-25T09:12:28;3.17;;;2.77;;
8046;SDS011;67150;42.516;23.358;2023-04-25T09:15:03;5.73;;;2.50;;
8046;SDS011;67150;42.516;23.358;2023-04-25T09:17:33;10.43;;;3.10;;
8046;SDS011;67150;42.516;23.358;2023-04-25T09:20:08;4.47;;;2.53;;
8046;SDS011;67150;42.516;23.358;2023-04-25T09:22:37;3.20;;;2.90;;
8046;SDS011;67150;42.516;23.358;2023-04-25T09:25:08;3.87;;;2.77;;
8046;SDS011;67150;42.516;23.358;2023-04-25T09:27:36;3.80;;;3.03;;
8046;SDS011;67150;42.516;23.358;2023-04-25T09:33:58;3.40;;;3.20;;
8046;SDS011;67150;42.516;23.358;2023-04-25T09:36:29;3.20;;;2.90;;
8046;SDS011;67150;42.516;23.358;2023-04-25T09:38:57;2.97;;;2.77;;
8046;SDS011;67150;42.516;23.358;2023-04-25T09:41:26;3.33;;;2.63;;
8046;SDS011;67150;42.516;23.358;2023-04-25T09:43:56;2.87;;;2.67;;
8046;SDS011;67150;42.516;23.358;2023-04-25T09:46:23;3.13;;;2.83;;
8046;SDS011;67150;42.516;23.358;2023-04-25T09:48:51;2.97;;;2.77;;
8046;SDS011;67150;42.516;23.358;2023-04-25T09:51:22;4.20;;;3.00;;
8046;SDS011;67150;42.516;23.358;2023-04-25T09:53:58;2.80;;;2.60;;
8046;SDS011;67150;42.516;23.358;2023-04-25T09:56:25;3.10;;;2.80;;
8046;SDS011;67150;42.516;23.358;2023-04-25T09:58:58;2.70;;;2.47;;
8046;SDS011;67150;42.516;23.358;2023-04-25T10:01:26;2.90;;;2.60;;
8046;SDS011;67150;42.516;23.358;2023-04-25T10:03:54;2.50;;;2.40;;
8046;SDS011;67150;42.516;23.358;2023-04-25T10:06:24;2.47;;;2.30;;
8046;SDS011;67150;42.516;23.358;2023-04-25T10:08:52;2.20;;;2.10;;
8046;SDS011;67150;42.516;23.358;2023-04-25T10:11:22;3.17;;;2.30;;
8046;SDS011;67150;42.516;23.358;2023-04-25T10:13:51;2.20;;;2.10;;
8046;SDS011;67150;42.516;23.358;2023-04-25T10:16:20;3.07;;;2.43;;
8046;SDS011;67150;42.516;23.358;2023-04-25T10:18:48;2.30;;;2.20;;
8046;SDS011;67150;42.516;23.358;2023-04-25T10:21:17;1.70;;;1.60;;
8046;SDS011;67150;42.516;23.358;2023-04-25T10:23:45;3.37;;;1.80;;
8046;SDS011;67150;42.516;23.358;2023-04-25T10:26:12;3.57;;;1.90;;
8046;SDS011;67150;42.516;23.358;2023-04-25T10:28:58;3.27;;;1.90;;
8046;SDS011;67150;42.516;23.358;2023-04-25T10:31:27;3.23;;;1.80;;
8046;SDS011;67150;42.516;23.358;2023-04-25T10:33:57;2.80;;;1.73;;
8046;SDS011;67150;42.516;23.358;2023-04-25T10:36:26;3.20;;;2.13;;
8046;SDS011;67150;42.516;23.358;2023-04-25T10:39:03;3.47;;;1.60;;
8046;SDS011;67150;42.516;23.358;2023-04-25T10:41:46;4.20;;;1.67;;
8046;SDS011;67150;42.516;23.358;2023-04-25T10:44:20;3.23;;;1.43;;
8046;SDS011;67150;42.516;23.358;2023-04-25T10:46:54;3.43;;;1.47;;
8046;SDS011;67150;42.516;23.358;2023-04-25T10:53:14;2.17;;;1.60;;
8046;SDS011;67150;42.516;23.358;2023-04-25T10:55:49;1.67;;;1.50;;
8046;SDS011;67150;42.516;23.358;2023-04-25T10:58:20;3.30;;;1.70;;
8046;SDS011;67150;42.516;23.358;2023-04-25T11:00:50;1.67;;;1.57;;
8046;SDS011;67150;42.516;23.358;2023-04-25T11:03:20;2.00;;;1.57;;
8046;SDS011;67150;42.516;23.358;2023-04-25T11:05:51;2.93;;;1.80;;
8046;SDS011;67150;42.516;23.358;2023-04-25T11:08:21;1.50;;;1.40;;
8046;SDS011;67150;42.516;23.358;2023-04-25T11:11:06;2.93;;;1.60;;
8046;SDS011;67150;42.516;23.358;2023-04-25T11:13:35;1.53;;;1.43;;
8046;SDS011;67150;42.516;23.358;2023-04-25T11:16:04;1.60;;;1.50;;
8046;SDS011;67150;42.516;23.358;2023-04-25T11:18:34;3.20;;;1.50;;
8046;SDS011;67150;42.516;23.358;2023-04-25T11:21:04;1.87;;;1.43;;
8046;SDS011;67150;42.516;23.358;2023-04-25T11:23:34;2.13;;;1.70;;
8046;SDS011;67150;42.516;23.358;2023-04-25T11:26:12;6.23;;;1.47;;
8046;SDS011;67150;42.516;23.358;2023-04-25T11:28:40;1.50;;;1.40;;
8046;SDS011;67150;42.516;23.358;2023-04-25T11:31:18;2.43;;;1.67;;
8046;SDS011;67150;42.516;23.358;2023-04-25T11:33:47;3.87;;;1.50;;
8046;SDS011;67150;42.516;23.358;2023-04-25T11:36:15;1.67;;;1.33;;
8046;SDS011;67150;42.516;23.358;2023-04-25T11:38:42;1.50;;;1.40;;
8046;SDS011;67150;42.516;23.358;2023-04-25T11:41:10;2.17;;;1.50;;
8046;SDS011;67150;42.516;23.358;2023-04-25T11:43:39;1.63;;;1.53;;
8046;SDS011;67150;42.516;23.358;2023-04-25T11:46:06;1.90;;;1.40;;
8046;SDS011;67150;42.516;23.358;2023-04-25T11:51:19;1.43;;;1.33;;
8046;SDS011;67150;42.516;23.358;2023-04-25T11:53:46;1.70;;;1.60;;
8046;SDS011;67150;42.516;23.358;2023-04-25T11:56:14;1.50;;;1.40;;
8046;SDS011;67150;42.516;23.358;2023-04-25T11:58:57;2.23;;;1.40;;
8046;SDS011;67150;42.516;23.358;2023-04-25T12:01:29;2.27;;;1.30;;
8046;SDS011;67150;42.516;23.358;2023-04-25T12:03:58;1.40;;;1.30;;
8046;SDS011;67150;42.516;23.358;2023-04-25T12:06:38;1.47;;;1.37;;
8046;SDS011;67150;42.516;23.358;2023-04-25T12:09:08;2.17;;;1.50;;
8046;SDS011;67150;42.516;23.358;2023-04-25T12:11:41;1.57;;;1.47;;
8046;SDS011;67150;42.516;23.358;2023-04-25T12:14:09;1.43;;;1.40;;
8046;SDS011;67150;42.516;23.358;2023-04-25T12:16:41;1.63;;;1.53;;
8046;SDS011;67150;42.516;23.358;2023-04-25T12:19:13;1.60;;;1.50;;
8046;SDS011;67150;42.516;23.358;2023-04-25T12:21:47;1.77;;;1.63;;
8046;SDS011;67150;42.516;23.358;2023-04-25T12:24:21;1.73;;;1.63;;
8046;SDS011;67150;42.516;23.358;2023-04-25T12:26:51;1.93;;;1.53;;
8046;SDS011;67150;42.516;23.358;2023-04-25T12:29:20;1.90;;;1.53;;
8046;SDS011;67150;42.516;23.358;2023-04-25T12:31:49;1.70;;;1.60;;
8046;SDS011;67150;42.516;23.358;2023-04-25T12:34:17;1.50;;;1.40;;
8046;SDS011;67150;42.516;23.358;2023-04-25T12:36:46;1.80;;;1.60;;
8046;SDS011;67150;42.516;23.358;2023-04-25T12:39:15;1.60;;;1.50;;
8046;SDS011;67150;42.516;23.358;2023-04-25T12:41:42;1.50;;;1.40;;
8046;SDS011;67150;42.516;23.358;2023-04-25T12:44:11;1.60;;;1.50;;
8046;SDS011;67150;42.516;23.358;2023-04-25T12:46:38;1.60;;;1.50;;
8046;SDS011;67150;42.516;23.358;2023-04-25T12:49:06;1.57;;;1.47;;
8046;SDS011;67150;42.516;23.358;2023-04-25T12:51:34;2.10;;;1.57;;
8046;SDS011;67150;42.516;23.358;2023-04-25T12:54:04;2.10;;;1.27;;
8046;SDS011;67150;42.516;23.358;2023-04-25T12:56:32;11.63;;;1.70;;
8046;SDS011;67150;42.516;23.358;2023-04-25T12:58:59;8.37;;;1.80;;
8046;SDS011;67150;42.516;23.358;2023-04-25T13:01:28;2.57;;;1.27;;
8046;SDS011;67150;42.516;23.358;2023-04-25T13:03:58;2.50;;;1.30;;
8046;SDS011;67150;42.516;23.358;2023-04-25T13:06:26;2.47;;;1.40;;
8046;SDS011;67150;42.516;23.358;2023-04-25T13:08:55;3.87;;;1.40;;
8046;SDS011;67150;42.516;23.358;2023-04-25T13:11:24;2.10;;;1.40;;
8046;SDS011;67150;42.516;23.358;2023-04-25T13:13:51;5.57;;;1.30;;
8046;SDS011;67150;42.516;23.358;2023-04-25T13:16:18;2.40;;;1.30;;
8046;SDS011;67150;42.516;23.358;2023-04-25T13:18:46;2.20;;;1.30;;
8046;SDS011;67150;42.516;23.358;2023-04-25T13:21:13;2.63;;;1.30;;
8046;SDS011;67150;42.516;23.358;2023-04-25T13:23:40;2.73;;;1.20;;
8046;SDS011;67150;42.516;23.358;2023-04-25T13:26:08;2.23;;;1.20;;
8046;SDS011;67150;42.516;23.358;2023-04-25T13:28:37;3.93;;;1.30;;
8046;SDS011;67150;42.516;23.358;2023-04-25T13:31:05;1.33;;;1.20;;
8046;SDS011;67150;42.516;23.358;2023-04-25T13:33:33;1.43;;;1.17;;
8046;SDS011;67150;42.516;23.358;2023-04-25T13:36:00;1.40;;;1.30;;
8046;SDS011;67150;42.516;23.358;2023-04-25T13:38:28;3.20;;;1.30;;
8046;SDS011;67150;42.516;23.358;2023-04-25T13:40:55;1.30;;;1.20;;
8046;SDS011;67150;42.516;23.358;2023-04-25T13:43:23;1.60;;;1.27;;
8046;SDS011;67150;42.516;23.358;2023-04-25T13:45:51;1.40;;;1.23;;
8046;SDS011;67150;42.516;23.358;2023-04-25T13:48:18;1.30;;;1.20;;
8046;SDS011;67150;42.516;23.358;2023-04-25T13:50:46;1.50;;;1.40;;
8046;SDS011;67150;42.516;23.358;2023-04-25T13:53:13;2.43;;;1.20;;
8046;SDS011;67150;42.516;23.358;2023-04-25T13:55:41;1.27;;;1.27;;
8046;SDS011;67150;42.516;23.358;2023-04-25T13:58:08;1.57;;;1.47;;
8046;SDS011;67150;42.516;23.358;2023-04-25T14:00:36;1.97;;;1.20;;
8046;SDS011;67150;42.516;23.358;2023-04-25T14:03:07;1.20;;;1.20;;
8046;SDS011;67150;42.516;23.358;2023-04-25T14:05:34;1.13;;;1.13;;
8046;SDS011;67150;42.516;23.358;2023-04-25T14:08:07;1.20;;;1.20;;
8046;SDS011;67150;42.516;23.358;2023-04-25T14:10:36;1.10;;;1.10;;
8046;SDS011;67150;42.516;23.358;2023-04-25T14:13:03;1.33;;;1.23;;
8046;SDS011;67150;42.516;23.358;2023-04-25T14:15:31;2.43;;;1.30;;
8046;SDS011;67150;42.516;23.358;2023-04-25T14:17:58;1.47;;;1.30;;
8046;SDS011;67150;42.516;23.358;2023-04-25T14:20:28;1.30;;;1.20;;
8046;SDS011;67150;42.516;23.358;2023-04-25T14:22:55;1.30;;;1.20;;
8046;SDS011;67150;42.516;23.358;2023-04-25T14:25:23;1.30;;;1.30;;
8046;SDS011;67150;42.516;23.358;2023-04-25T14:27:51;1.33;;;1.30;;
8046;SDS011;67150;42.516;23.358;2023-04-25T14:30:18;1.20;;;1.20;;
8046;SDS011;67150;42.516;23.358;2023-04-25T14:32:47;1.50;;;1.40;;
8046;SDS011;67150;42.516;23.358;2023-04-25T14:35:15;1.30;;;1.30;;
8046;SDS011;67150;42.516;23.358;2023-04-25T14:37:44;1.30;;;1.20;;
8046;SDS011;67150;42.516;23.358;2023-04-25T14:40:11;1.20;;;1.20;;
8046;SDS011;67150;42.516;23.358;2023-04-25T14:42:40;2.10;;;1.30;;
8046;SDS011;67150;42.516;23.358;2023-04-25T14:45:08;1.20;;;1.20;;
8046;SDS011;67150;42.516;23.358;2023-04-25T14:47:36;1.30;;;1.30;;
8046;SDS011;67150;42.516;23.358;2023-04-25T14:50:04;1.40;;;1.30;;
8046;SDS011;67150;42.516;23.358;2023-04-25T14:52:32;1.50;;;1.40;;
8046;SDS011;67150;42.516;23.358;2023-04-25T14:55:00;1.50;;;1.40;;
8046;SDS011;67150;42.516;23.358;2023-04-25T14:57:30;2.97;;;1.33;;
8046;SDS011;67150;42.516;23.358;2023-04-25T14:59:58;1.50;;;1.40;;
8046;SDS011;67150;42.516;23.358;2023-04-25T15:02:25;1.30;;;1.30;;
8046;SDS011;67150;42.516;23.358;2023-04-25T15:04:53;1.30;;;1.20;;
8046;SDS011;67150;42.516;23.358;2023-04-25T15:07:21;1.40;;;1.40;;
8046;SDS011;67150;42.516;23.358;2023-04-25T15:09:48;1.77;;;1.50;;